KDLL

Baraboo-Wisconsin Dells Regional Airport

Baraboo, Wisconsin, USA
METAR KDLL 172115Z AUTO 24005KT 2 1/2SM -SN SCT016 BKN028 OVC035 M03/M05 A2989 RMK AO2 T10281049
Observed Flight Rules
Feb-17 @ 21:15 UTC (20 minutes ago) Instrument Flight Rules
Wind Visibility Clouds Conditions
240° at 5 knots 2 1/2 miles
  • Scattered at 1,600' AGL
  • Broken at 2,800' AGL
  • Overcast at 3,500' AGL
  • Light Snow
Temperatures Readings
Current -3°C / 27°F
Dewpoint -5°C / 23°F
Humidity 86%
Altimeter 29.89" Hg
Pressure 1012 hPa
Elevation 299
METAR KDLL 172115Z AUTO 24005KT 2 1/2SM -SN SCT016 BKN028 OVC035 M03/M05 A2989 RMK AO2 T10281049
Observed Flight Rules
Feb-17 @ 21:15 UTC
(20 minutes ago)
IFR
Wind Visibility
240° at 5 knots 2 1/2 miles
Clouds
  • Scattered at 1,600' AGL
  • Broken at 2,800' AGL
  • Overcast at 3,500' AGL
Conditions
  • Light Snow
Temperature Dewpoint
-3°C / 27°F -5°C / 23°F
Humidity Altimeter Pressure
86% 29.89" Hg 1012 hPa